createdAt,value
2022-11-07T00:06:03.754Z,11.20
2022-11-07T00:08:53.960Z,11.20
2022-11-07T00:11:41.296Z,11.20
2022-11-07T01:16:11.844Z,11.30
2022-11-07T01:18:59.477Z,11.30
2022-11-07T01:21:46.953Z,11.30
2022-11-07T01:24:34.364Z,11.30
2022-11-07T01:27:21.655Z,11.30
2022-11-07T01:30:09.259Z,11.30
2022-11-07T01:32:56.573Z,11.30
2022-11-07T01:35:43.598Z,11.30
2022-11-07T01:38:30.924Z,11.30
2022-11-07T01:41:26.882Z,11.40
2022-11-07T01:44:14.210Z,11.30
2022-11-07T01:47:01.724Z,11.30
2022-11-07T01:53:31.685Z,11.30
2022-11-07T01:56:55.804Z,11.30
2022-11-07T02:09:59.743Z,11.30
2022-11-07T02:12:47.386Z,11.30
2022-11-07T02:15:35.472Z,11.40
2022-11-07T02:55:00.020Z,11.30
2022-11-07T02:57:47.491Z,11.30
2022-11-07T03:34:22.200Z,11.30
2022-11-07T03:37:12.188Z,11.30
2022-11-07T03:40:01.358Z,11.30
2022-11-07T03:42:52.726Z,11.30
2022-11-07T03:45:41.894Z,11.30
2022-11-07T03:48:31.973Z,11.40
2022-11-07T03:51:22.101Z,11.30
2022-11-07T03:54:12.334Z,11.30
2022-11-07T03:57:02.712Z,11.30
2022-11-07T03:59:50.689Z,11.30
2022-11-07T04:02:43.484Z,11.30
2022-11-07T04:05:42.693Z,11.30
2022-11-07T04:08:30.453Z,11.30
2022-11-07T04:11:54.648Z,11.30
2022-11-07T04:15:03.515Z,11.30
2022-11-07T04:17:52.773Z,11.30
2022-11-07T04:20:51.335Z,11.20
2022-11-07T04:23:39.807Z,11.20
2022-11-07T04:27:02.800Z,11.20
2022-11-07T04:29:53.456Z,11.20
2022-11-07T04:38:56.194Z,11.20
2022-11-07T04:44:47.153Z,11.20
2022-11-07T05:12:07.900Z,11.20
2022-11-07T05:15:06.364Z,11.20
2022-11-07T05:18:08.050Z,11.20
2022-11-07T05:21:00.899Z,11.20
2022-11-07T05:39:12.175Z,11.30
2022-11-07T06:46:47.090Z,11.30
2022-11-07T07:01:46.956Z,11.40
2022-11-07T07:04:39.368Z,11.40
2022-11-07T07:07:36.485Z,11.40
2022-11-07T07:10:25.650Z,11.40
2022-11-07T07:13:16.844Z,11.50
2022-11-07T07:16:11.285Z,11.50
2022-11-07T07:19:08.461Z,11.50
2022-11-07T07:21:55.739Z,11.60
2022-11-07T07:24:43.204Z,11.50
2022-11-07T07:30:51.875Z,11.60
2022-11-07T07:33:43.021Z,11.60
2022-11-07T07:36:35.295Z,11.60
2022-11-07T07:39:28.050Z,11.70
2022-11-07T07:42:22.507Z,11.60
2022-11-07T07:45:16.709Z,11.70
2022-11-07T07:48:06.292Z,11.70
2022-11-07T07:54:27.828Z,11.70
2022-11-07T08:08:08.306Z,11.70
2022-11-07T08:11:00.723Z,11.80
2022-11-07T08:13:47.744Z,11.80
2022-11-07T08:16:35.145Z,11.80
2022-11-07T08:19:22.311Z,11.80
2022-11-07T08:22:11.366Z,11.90
2022-11-07T08:24:58.745Z,11.90
2022-11-07T08:36:55.361Z,12.00
2022-11-07T08:39:42.445Z,11.90
2022-11-07T08:42:29.872Z,12.10
2022-11-07T08:45:17.368Z,12.10
2022-11-07T08:48:05.111Z,12.20
2022-11-07T08:50:56.069Z,12.30
2022-11-07T08:53:43.702Z,12.30
2022-11-07T08:56:32.795Z,12.30
2022-11-07T08:59:19.899Z,12.40
2022-11-07T09:05:17.269Z,12.50
2022-11-07T09:08:04.429Z,12.50
2022-11-07T09:10:51.729Z,12.60
2022-11-07T09:13:39.367Z,12.60
2022-11-07T09:16:26.813Z,12.60
2022-11-07T09:19:13.998Z,12.70
2022-11-07T09:22:01.093Z,12.70
2022-11-07T09:24:48.579Z,12.80
2022-11-07T09:53:15.283Z,13.00
2022-11-07T09:56:04.297Z,13.00
2022-11-07T09:58:52.159Z,12.90
2022-11-07T10:01:39.664Z,12.90
2022-11-07T10:04:27.439Z,12.90
2022-11-07T10:07:23.007Z,12.90
2022-11-07T10:10:23.527Z,12.90
2022-11-07T10:13:29.302Z,12.90
2022-11-07T10:16:22.360Z,12.90
2022-11-07T10:19:09.729Z,12.90
2022-11-07T10:22:08.773Z,13.00
2022-11-07T10:25:11.289Z,12.90
2022-11-07T10:28:08.175Z,13.00
2022-11-07T10:30:58.366Z,13.00
2022-11-07T10:33:56.613Z,13.10
2022-11-07T10:36:44.056Z,13.20
2022-11-07T10:39:31.808Z,13.20
2022-11-07T10:42:31.025Z,13.10
2022-11-07T10:45:32.302Z,13.20
2022-11-07T10:48:21.193Z,13.10
2022-11-07T10:51:18.235Z,13.30
2022-11-07T10:54:21.897Z,13.30
2022-11-07T11:03:50.542Z,13.30
2022-11-07T11:06:48.124Z,13.20
2022-11-07T11:09:54.089Z,13.30
2022-11-07T11:12:54.618Z,13.40
2022-11-07T11:15:46.040Z,13.30
2022-11-07T11:18:38.007Z,13.30
2022-11-07T11:21:47.329Z,13.20
2022-11-07T11:24:38.090Z,13.30
2022-11-07T11:27:33.317Z,13.20
2022-11-07T11:30:22.207Z,13.30
2022-11-07T11:33:17.595Z,13.30
2022-11-07T11:36:16.787Z,13.20
2022-11-07T11:51:05.739Z,13.10
2022-11-07T11:53:53.446Z,13.10
2022-11-07T11:57:04.429Z,13.00
2022-11-07T12:00:06.436Z,13.00
2022-11-07T14:38:46.561Z,13.20
2022-11-07T14:41:38.219Z,13.20
2022-11-07T14:44:47.510Z,13.20
2022-11-07T14:47:38.155Z,13.20
2022-11-07T14:53:59.657Z,13.20
2022-11-07T15:39:50.024Z,13.00
2022-11-07T19:19:02.226Z,13.70
2022-11-07T19:21:58.768Z,13.70
2022-11-07T19:24:57.311Z,13.70
2022-11-07T19:27:54.327Z,13.60
2022-11-07T19:31:08.577Z,13.60
2022-11-07T19:34:06.300Z,13.60
2022-11-07T19:36:56.940Z,13.60
2022-11-07T19:39:44.652Z,13.60
2022-11-07T19:42:38.839Z,13.50
2022-11-07T19:45:29.879Z,13.60
2022-11-07T19:48:25.793Z,13.60
2022-11-07T19:57:43.331Z,13.50
2022-11-07T20:00:57.527Z,13.50
2022-11-07T20:07:38.385Z,13.40
2022-11-07T20:10:28.268Z,13.30
2022-11-07T20:13:22.500Z,13.30
2022-11-07T20:16:14.960Z,13.40
2022-11-07T20:22:16.023Z,13.30
2022-11-07T20:37:12.154Z,13.30
2022-11-07T20:39:59.625Z,13.40
2022-11-07T20:42:47.040Z,13.40
2022-11-07T20:45:34.428Z,13.30
2022-11-07T20:48:22.506Z,13.30
2022-11-07T20:51:13.920Z,13.30
2022-11-07T20:54:01.320Z,13.30
2022-11-07T20:56:48.409Z,13.30
2022-11-07T20:59:35.426Z,13.30
2022-11-07T21:02:23.649Z,13.20
2022-11-07T21:05:43.901Z,13.30
2022-11-07T21:08:37.278Z,13.40
2022-11-07T21:11:34.085Z,13.40
2022-11-07T21:14:26.743Z,13.40
2022-11-07T21:17:22.259Z,13.40
2022-11-07T21:33:58.065Z,13.70
2022-11-07T21:36:45.681Z,13.60
2022-11-07T21:39:33.023Z,13.70
2022-11-07T21:42:20.580Z,13.70
2022-11-07T21:45:08.266Z,13.70
2022-11-07T21:47:55.663Z,13.70
2022-11-07T21:50:45.059Z,13.80
2022-11-07T21:53:37.493Z,13.80
2022-11-07T21:56:26.639Z,13.80
2022-11-07T21:59:13.986Z,13.80
2022-11-07T22:02:01.200Z,13.70
2022-11-07T22:04:48.695Z,13.80
2022-11-07T22:07:36.434Z,13.70
2022-11-07T22:10:48.651Z,13.70
2022-11-07T22:16:54.820Z,13.70
2022-11-07T22:19:41.831Z,13.70
2022-11-07T22:49:55.886Z,13.50
2022-11-07T22:52:43.256Z,13.50
2022-11-07T22:55:34.636Z,13.50
2022-11-07T22:58:22.073Z,13.50
2022-11-07T23:01:16.646Z,13.50
2022-11-07T23:04:04.844Z,13.50
2022-11-07T23:06:52.707Z,13.50
2022-11-07T23:09:40.051Z,13.50
2022-11-07T23:12:30.469Z,13.50
2022-11-07T23:15:17.828Z,13.50
2022-11-07T23:18:06.476Z,13.50
2022-11-07T23:23:57.531Z,13.50
2022-11-07T23:48:34.388Z,13.40
2022-11-07T23:51:22.458Z,13.30
2022-11-07T23:54:28.391Z,13.30
2022-11-07T23:57:15.732Z,13.30
